createdAt,value
2017-06-13T00:00:32.267Z,10.43
2017-06-13T00:02:58.936Z,7.10
2017-06-13T00:05:25.625Z,8.18
2017-06-13T00:07:52.296Z,7.00
2017-06-13T00:10:18.960Z,9.55
2017-06-13T00:12:50.252Z,7.93
2017-06-13T00:15:16.996Z,7.12
2017-06-13T00:17:43.656Z,6.30
2017-06-13T00:20:10.333Z,6.40
2017-06-13T00:22:37.005Z,8.45
2017-06-13T00:25:03.682Z,7.57
2017-06-13T00:27:30.360Z,9.68
2017-06-13T00:29:57.028Z,6.72
2017-06-13T00:32:23.716Z,8.93
2017-06-13T00:34:50.384Z,9.55
2017-06-13T00:37:17.064Z,8.43
2017-06-13T00:39:43.727Z,9.07
2017-06-13T00:42:15.674Z,9.18
2017-06-13T00:44:42.355Z,4.97
2017-06-13T00:47:09.045Z,9.30
2017-06-13T00:49:35.716Z,5.30
2017-06-13T00:52:02.408Z,6.78
2017-06-13T00:54:29.068Z,7.07
2017-06-13T00:56:55.769Z,10.07
2017-06-13T00:59:22.443Z,10.93
2017-06-13T01:01:49.136Z,7.20
2017-06-13T01:04:15.804Z,5.93
2017-06-13T01:06:42.498Z,9.48
2017-06-13T01:09:09.164Z,8.50
2017-06-13T01:11:35.853Z,5.87
2017-06-13T01:14:02.527Z,10.85
2017-06-13T01:16:29.216Z,8.02
2017-06-13T01:18:55.875Z,9.30
2017-06-13T01:21:22.568Z,11.38
2017-06-13T01:23:49.243Z,10.32
2017-06-13T01:26:15.932Z,6.47
2017-06-13T01:28:48.725Z,7.62
2017-06-13T01:31:15.583Z,8.43
2017-06-13T01:33:42.251Z,11.73
2017-06-13T01:36:08.923Z,11.60
2017-06-13T01:38:35.600Z,11.30
2017-06-13T01:41:02.273Z,9.00
2017-06-13T01:43:37.336Z,12.48
2017-06-13T01:46:06.411Z,10.95
2017-06-13T01:48:33.345Z,10.70
2017-06-13T01:51:00.015Z,13.85
2017-06-13T01:53:30.020Z,8.48
2017-06-13T01:55:56.692Z,6.97
2017-06-13T01:58:23.359Z,13.80
2017-06-13T02:00:50.035Z,11.40
2017-06-13T02:03:16.699Z,9.55
2017-06-13T02:05:46.434Z,11.52
2017-06-13T02:08:13.109Z,10.40
2017-06-13T02:10:39.780Z,10.68
2017-06-13T02:13:06.471Z,12.00
2017-06-13T02:15:36.646Z,10.93
2017-06-13T02:18:03.355Z,11.15
2017-06-13T02:20:30.028Z,5.50
2017-06-13T02:22:56.731Z,16.40
2017-06-13T02:25:23.391Z,8.80
2017-06-13T02:27:50.084Z,10.52
2017-06-13T02:30:16.755Z,13.77
2017-06-13T02:32:43.447Z,10.25
2017-06-13T02:35:10.119Z,8.63
2017-06-13T02:37:36.820Z,11.63
2017-06-13T02:40:03.507Z,10.63
2017-06-13T02:42:30.203Z,11.93
2017-06-13T02:44:56.874Z,8.43
2017-06-13T02:47:23.571Z,12.43
2017-06-13T02:49:51.991Z,9.70
2017-06-13T02:52:18.749Z,10.88
2017-06-13T02:54:45.408Z,9.85
2017-06-13T02:57:12.107Z,12.25
2017-06-13T02:59:38.779Z,12.07
2017-06-13T03:02:05.480Z,11.63
2017-06-13T03:04:32.148Z,12.23
2017-06-13T03:06:58.816Z,15.40
2017-06-13T03:09:25.479Z,9.25
2017-06-13T03:11:52.156Z,11.38
2017-06-13T03:14:18.828Z,10.38
2017-06-13T03:16:45.519Z,16.33
2017-06-13T03:19:16.022Z,12.18
2017-06-13T03:21:45.221Z,13.85
2017-06-13T03:24:13.301Z,11.57
2017-06-13T03:26:40.088Z,14.73
2017-06-13T03:29:06.761Z,11.73
2017-06-13T03:31:33.435Z,11.73
2017-06-13T03:34:00.105Z,12.13
2017-06-13T03:36:26.777Z,11.25
2017-06-13T03:38:53.440Z,12.02
2017-06-13T03:41:20.112Z,11.27
2017-06-13T03:43:46.781Z,13.18
2017-06-13T03:46:13.440Z,9.77
2017-06-13T03:48:40.116Z,10.27
2017-06-13T03:51:06.792Z,11.80
2017-06-13T03:53:33.491Z,13.18
2017-06-13T03:56:00.164Z,10.20
2017-06-13T03:58:26.859Z,11.18
2017-06-13T04:00:53.524Z,9.48
2017-06-13T04:03:20.217Z,11.05
2017-06-13T04:05:46.890Z,12.70
2017-06-13T04:08:13.601Z,10.65
2017-06-13T04:10:40.291Z,14.35
2017-06-13T04:13:06.998Z,10.45
2017-06-13T04:15:33.674Z,18.65
2017-06-13T04:18:00.367Z,9.65
2017-06-13T04:20:27.035Z,13.50
2017-06-13T04:22:53.740Z,13.77
2017-06-13T04:25:20.411Z,10.95
2017-06-13T04:27:47.106Z,12.43
2017-06-13T04:30:13.774Z,9.63
2017-06-13T04:32:40.439Z,9.30
2017-06-13T04:35:07.111Z,11.18
2017-06-13T04:37:33.775Z,9.00
2017-06-13T04:40:00.441Z,12.35
2017-06-13T04:42:27.111Z,7.70
2017-06-13T04:44:53.783Z,10.95
2017-06-13T04:47:20.447Z,8.38
2017-06-13T04:49:47.137Z,8.40
2017-06-13T04:52:13.808Z,11.40
2017-06-13T04:54:40.469Z,9.90
2017-06-13T04:57:07.136Z,8.38
2017-06-13T04:59:33.807Z,13.48
2017-06-13T05:02:00.481Z,8.93
2017-06-13T05:04:27.148Z,8.75
2017-06-13T05:06:53.820Z,14.98
2017-06-13T05:09:20.493Z,12.98
2017-06-13T05:11:47.160Z,10.80
2017-06-13T05:14:13.832Z,13.40
2017-06-13T05:16:40.495Z,17.62
2017-06-13T05:19:07.167Z,12.55
2017-06-13T05:21:33.836Z,9.85
2017-06-13T05:24:00.516Z,11.27
2017-06-13T05:26:27.212Z,12.13
2017-06-13T05:28:53.907Z,13.95
2017-06-13T05:31:20.579Z,10.65
2017-06-13T05:33:47.271Z,11.07
2017-06-13T05:36:13.953Z,12.10
2017-06-13T05:38:40.657Z,18.58
2017-06-13T05:41:07.328Z,11.30
2017-06-13T05:43:34.003Z,12.50
2017-06-13T05:46:00.676Z,7.72
2017-06-13T05:48:27.345Z,8.68
2017-06-13T05:50:54.016Z,7.05
2017-06-13T05:53:20.680Z,9.17
2017-06-13T05:55:47.357Z,10.03
2017-06-13T05:58:14.025Z,7.03
2017-06-13T06:00:40.692Z,5.63
2017-06-13T06:03:07.353Z,9.03
2017-06-13T06:05:34.016Z,8.00
2017-06-13T06:08:00.684Z,8.97
2017-06-13T06:10:27.344Z,6.90
2017-06-13T06:12:54.012Z,7.87
2017-06-13T06:15:20.683Z,6.67
2017-06-13T06:17:47.355Z,5.70
2017-06-13T06:20:14.020Z,8.10
2017-06-13T06:22:40.680Z,8.60
2017-06-13T06:25:07.348Z,7.10
2017-06-13T06:27:34.007Z,8.87
2017-06-13T06:30:00.696Z,9.20
2017-06-13T06:32:27.363Z,8.30
2017-06-13T06:34:54.057Z,5.20
2017-06-13T06:37:20.723Z,8.20
2017-06-13T06:39:47.409Z,8.53
2017-06-13T06:42:14.071Z,8.73
2017-06-13T06:44:40.759Z,5.53
2017-06-13T06:47:07.421Z,6.83
2017-06-13T06:49:34.108Z,9.50
2017-06-13T06:52:00.780Z,5.30
2017-06-13T06:54:27.469Z,7.37
2017-06-13T06:56:54.136Z,7.53
2017-06-13T06:59:20.795Z,7.93
2017-06-13T07:01:47.472Z,6.50
2017-06-13T07:04:14.142Z,7.30
2017-06-13T07:06:40.812Z,9.80
2017-06-13T07:09:07.480Z,5.70
2017-06-13T07:11:34.168Z,7.03
2017-06-13T07:14:00.835Z,9.10
2017-06-13T07:16:27.524Z,5.27
2017-06-13T07:18:54.187Z,9.73
2017-06-13T07:21:20.881Z,6.20
2017-06-13T07:23:47.547Z,4.70
2017-06-13T07:26:14.243Z,6.22
2017-06-13T07:28:40.916Z,7.95
2017-06-13T07:31:07.615Z,5.60
2017-06-13T07:33:34.300Z,6.75
2017-06-13T07:36:01.003Z,7.15
2017-06-13T07:38:27.675Z,8.55
2017-06-13T07:40:54.376Z,7.55
2017-06-13T07:43:21.051Z,5.62
2017-06-13T07:45:47.753Z,4.90
2017-06-13T07:48:14.428Z,5.03
2017-06-13T07:50:41.111Z,7.70
2017-06-13T07:53:07.773Z,9.70
2017-06-13T07:55:34.464Z,8.90
2017-06-13T07:58:01.128Z,5.17
2017-06-13T08:00:27.812Z,6.87
2017-06-13T08:02:54.475Z,6.60
2017-06-13T08:05:21.160Z,6.03
2017-06-13T08:07:47.832Z,6.83
2017-06-13T08:10:14.520Z,5.57
2017-06-13T08:12:41.188Z,7.67
2017-06-13T08:15:07.884Z,9.13
2017-06-13T08:17:34.552Z,7.63
2017-06-13T08:20:01.228Z,5.57
2017-06-13T08:22:27.891Z,6.47
2017-06-13T08:24:54.567Z,6.68
2017-06-13T08:27:21.237Z,6.15
2017-06-13T08:29:47.908Z,7.07
2017-06-13T08:32:14.575Z,7.32
2017-06-13T08:34:41.253Z,6.32
2017-06-13T08:37:07.936Z,5.80
2017-06-13T08:39:34.608Z,4.53
2017-06-13T08:42:01.276Z,5.37
2017-06-13T08:44:27.939Z,9.88
2017-06-13T08:46:54.629Z,7.32
2017-06-13T08:49:21.296Z,7.25
2017-06-13T08:51:48.000Z,8.77
2017-06-13T08:54:14.669Z,7.60
2017-06-13T08:56:41.363Z,6.07
2017-06-13T08:59:08.080Z,6.07
2017-06-13T09:01:34.764Z,4.30
2017-06-13T09:04:01.427Z,5.00
2017-06-13T09:06:28.124Z,4.93
2017-06-13T09:08:54.796Z,6.50
2017-06-13T09:11:21.500Z,4.72
2017-06-13T09:13:48.172Z,6.20
2017-06-13T09:16:14.859Z,4.82
2017-06-13T09:18:41.522Z,8.00
2017-06-13T09:21:08.216Z,8.00
2017-06-13T09:23:34.891Z,9.52
2017-06-13T09:26:01.579Z,5.37
2017-06-13T09:28:28.244Z,7.95
2017-06-13T09:30:54.943Z,6.25
2017-06-13T09:33:21.608Z,7.00
2017-06-13T09:35:48.283Z,5.60
2017-06-13T09:38:14.956Z,5.15
2017-06-13T09:40:41.637Z,5.57
2017-06-13T09:43:08.299Z,4.63
2017-06-13T09:45:34.968Z,4.17
2017-06-13T09:48:01.635Z,5.07
2017-06-13T09:50:28.311Z,6.00
2017-06-13T09:52:54.985Z,7.17
2017-06-13T09:55:21.644Z,5.17
2017-06-13T09:57:48.311Z,4.83
2017-06-13T10:00:14.968Z,5.60
2017-06-13T10:02:41.640Z,4.95
2017-06-13T10:05:08.309Z,6.85
2017-06-13T10:07:34.987Z,5.25
2017-06-13T10:10:01.661Z,5.62
2017-06-13T10:12:28.332Z,6.12
2017-06-13T10:14:55.008Z,5.12
2017-06-13T10:17:21.689Z,7.32
2017-06-13T10:19:48.360Z,4.70
2017-06-13T10:22:15.051Z,7.03
2017-06-13T10:24:41.724Z,4.70
2017-06-13T10:27:08.424Z,4.30
2017-06-13T10:29:35.087Z,5.80
2017-06-13T10:32:01.789Z,3.90
2017-06-13T10:34:28.463Z,4.17
2017-06-13T10:36:55.149Z,4.90
2017-06-13T10:39:21.803Z,5.07
2017-06-13T10:41:48.489Z,6.03
2017-06-13T10:44:15.512Z,4.23
2017-06-13T10:46:42.237Z,4.93
2017-06-13T10:49:08.919Z,4.80
2017-06-13T10:51:35.601Z,5.03
2017-06-13T10:54:02.277Z,4.70
2017-06-13T10:56:28.956Z,6.78
2017-06-13T10:58:55.640Z,5.10
2017-06-13T11:01:22.317Z,5.35
2017-06-13T11:03:48.999Z,5.78
2017-06-13T11:06:15.672Z,5.75
2017-06-13T11:08:42.384Z,6.62
2017-06-13T11:11:09.056Z,5.78
2017-06-13T11:13:35.723Z,5.32
2017-06-13T11:16:02.534Z,4.68
2017-06-13T11:18:29.453Z,4.75
2017-06-13T11:20:56.128Z,4.90
2017-06-13T11:23:22.799Z,4.90
2017-06-13T11:25:49.460Z,7.28
2017-06-13T11:28:16.128Z,4.93
2017-06-13T11:30:42.796Z,9.70
2017-06-13T11:33:09.481Z,5.37
2017-06-13T11:35:36.148Z,6.12
2017-06-13T11:38:02.829Z,6.00
2017-06-13T11:40:29.501Z,5.20
2017-06-13T11:42:56.169Z,4.57
2017-06-13T11:45:22.835Z,5.03
2017-06-13T11:47:49.500Z,5.27
2017-06-13T11:50:16.167Z,4.97
2017-06-13T11:52:42.836Z,5.83
2017-06-13T11:55:09.500Z,5.10
2017-06-13T11:57:36.175Z,4.30
2017-06-13T12:00:02.837Z,7.53
2017-06-13T12:02:29.624Z,5.27
2017-06-13T12:04:56.290Z,9.50
2017-06-13T12:07:22.991Z,5.33
2017-06-13T12:09:49.656Z,5.53
2017-06-13T12:12:16.372Z,4.43
2017-06-13T12:14:43.041Z,3.80
2017-06-13T12:17:09.703Z,4.90
2017-06-13T12:19:36.367Z,6.67
2017-06-13T12:22:03.028Z,3.80
2017-06-13T12:24:29.692Z,5.40
2017-06-13T12:26:56.356Z,4.50
2017-06-13T12:29:23.019Z,5.53
2017-06-13T12:31:49.675Z,5.80
2017-06-13T12:34:16.343Z,4.00
2017-06-13T12:36:43.021Z,4.87
2017-06-13T12:39:09.687Z,8.07
2017-06-13T12:41:36.356Z,6.57
2017-06-13T12:44:03.015Z,4.57
2017-06-13T12:46:29.691Z,4.27
2017-06-13T12:48:56.380Z,4.67
2017-06-13T12:51:23.036Z,4.77
2017-06-13T12:53:49.727Z,5.93
2017-06-13T12:56:16.379Z,6.80
2017-06-13T12:58:43.067Z,5.70
2017-06-13T13:01:09.728Z,6.27
2017-06-13T13:03:36.411Z,5.87
2017-06-13T13:06:03.068Z,7.73
2017-06-13T13:08:29.765Z,7.07
2017-06-13T13:10:56.432Z,5.60
2017-06-13T13:13:23.296Z,6.17
2017-06-13T13:15:49.959Z,6.50
2017-06-13T13:18:16.640Z,5.67
2017-06-13T13:20:43.301Z,6.53
2017-06-13T13:23:09.980Z,5.77
2017-06-13T13:25:36.640Z,5.83
2017-06-13T13:28:03.301Z,6.93
2017-06-13T13:30:29.972Z,6.40
2017-06-13T13:32:56.635Z,9.57
2017-06-13T13:35:23.298Z,7.00
2017-06-13T13:37:49.956Z,5.83
2017-06-13T13:40:16.645Z,4.90
2017-06-13T13:42:43.300Z,5.60
2017-06-13T13:45:09.996Z,6.30
2017-06-13T13:47:36.659Z,5.30
2017-06-13T13:50:03.340Z,6.17
2017-06-13T13:52:29.996Z,6.50
2017-06-13T13:54:56.676Z,5.87
2017-06-13T13:57:23.340Z,5.70
2017-06-13T13:59:50.029Z,6.00
2017-06-13T14:02:16.711Z,5.73
2017-06-13T14:04:43.391Z,5.87
2017-06-13T14:07:10.060Z,5.60
2017-06-13T14:09:36.752Z,5.00
2017-06-13T14:12:03.412Z,5.50
2017-06-13T14:14:30.100Z,4.77
2017-06-13T14:16:56.762Z,5.07
2017-06-13T14:19:23.452Z,6.30
2017-06-13T14:21:50.112Z,6.77
2017-06-13T14:24:16.796Z,5.00
2017-06-13T14:26:43.464Z,5.23
2017-06-13T14:29:10.152Z,6.90
2017-06-13T14:31:36.815Z,4.37
2017-06-13T14:34:03.504Z,4.77
2017-06-13T14:36:30.168Z,4.90
2017-06-13T14:38:56.855Z,4.27
2017-06-13T14:41:23.516Z,10.80
2017-06-13T14:43:50.179Z,4.60
2017-06-13T14:46:16.847Z,5.82
2017-06-13T14:48:43.520Z,5.62
2017-06-13T14:51:10.188Z,4.53
2017-06-13T14:53:36.855Z,5.00
2017-06-13T14:56:03.525Z,5.57
2017-06-13T14:58:30.196Z,5.47
2017-06-13T15:00:56.870Z,5.60
2017-06-13T15:03:23.542Z,5.12
2017-06-13T15:05:50.209Z,5.85
2017-06-13T15:08:16.879Z,6.43
2017-06-13T15:10:43.540Z,6.50
2017-06-13T15:13:10.200Z,6.53
2017-06-13T15:15:36.864Z,6.73
2017-06-13T15:18:03.527Z,5.77
2017-06-13T15:20:30.216Z,5.77
2017-06-13T15:22:56.876Z,5.43
2017-06-13T15:25:23.566Z,6.83
2017-06-13T15:27:50.228Z,5.70
2017-06-13T15:30:16.907Z,5.50
2017-06-13T15:32:43.576Z,5.30
2017-06-13T15:35:10.255Z,7.50
2017-06-13T15:37:36.931Z,5.50
2017-06-13T15:40:03.617Z,6.13
2017-06-13T15:42:30.272Z,4.83
2017-06-13T15:44:56.965Z,4.67
2017-06-13T15:47:23.633Z,5.00
2017-06-13T15:49:50.323Z,4.70
2017-06-13T15:52:16.979Z,5.30
2017-06-13T15:54:43.684Z,6.60
2017-06-13T15:57:10.343Z,5.17
2017-06-13T15:59:37.040Z,5.67
2017-06-13T16:02:03.699Z,7.07
2017-06-13T16:04:30.360Z,5.13
2017-06-13T16:06:57.019Z,4.53
2017-06-13T16:09:23.680Z,5.33
2017-06-13T16:11:50.361Z,4.50
2017-06-13T16:14:17.033Z,4.20
2017-06-13T16:16:43.692Z,6.17
2017-06-13T16:19:10.356Z,5.27
2017-06-13T16:21:37.015Z,4.70
2017-06-13T16:24:03.678Z,5.30
2017-06-13T16:26:30.335Z,4.87
2017-06-13T16:28:56.992Z,5.47
2017-06-13T16:31:23.651Z,5.87
2017-06-13T16:33:50.339Z,4.60
2017-06-13T16:36:16.999Z,4.73
2017-06-13T16:38:43.676Z,6.50
2017-06-13T16:41:10.350Z,4.57
2017-06-13T16:43:37.028Z,4.45
2017-06-13T16:46:03.704Z,5.07
2017-06-13T16:48:30.377Z,7.95
2017-06-13T16:50:57.060Z,6.53
2017-06-13T16:53:23.731Z,5.35
2017-06-13T16:55:50.432Z,5.85
2017-06-13T16:58:17.109Z,4.68
2017-06-13T17:00:43.809Z,6.80
2017-06-13T17:03:10.480Z,4.75
2017-06-13T17:05:37.189Z,5.87
2017-06-13T17:08:03.857Z,5.07
2017-06-13T17:10:30.560Z,4.85
2017-06-13T17:12:57.236Z,9.32
2017-06-13T17:15:23.932Z,4.43
2017-06-13T17:17:50.611Z,6.65
2017-06-13T17:20:17.284Z,4.70
2017-06-13T17:22:43.988Z,5.30
2017-06-13T17:25:10.666Z,5.20
2017-06-13T17:27:37.364Z,4.47
2017-06-13T17:30:04.027Z,5.95
2017-06-13T17:32:30.708Z,5.05
2017-06-13T17:34:57.371Z,5.10
2017-06-13T17:37:24.044Z,6.60
2017-06-13T17:39:50.708Z,5.53
2017-06-13T17:42:17.381Z,5.00
2017-06-13T17:44:44.073Z,4.87
2017-06-13T17:47:10.740Z,4.65
2017-06-13T17:49:37.412Z,5.60
2017-06-13T17:52:04.086Z,4.95
2017-06-13T17:54:30.764Z,5.85
2017-06-13T17:56:57.427Z,3.83
2017-06-13T17:59:24.103Z,3.80
2017-06-13T18:01:50.773Z,4.40
2017-06-13T18:04:17.436Z,3.70
2017-06-13T18:06:44.100Z,5.40
2017-06-13T18:09:10.764Z,5.20
2017-06-13T18:11:37.435Z,5.22
2017-06-13T18:14:04.096Z,3.58
2017-06-13T18:16:30.765Z,4.70
2017-06-13T18:18:57.424Z,6.20
2017-06-13T18:21:24.092Z,5.70
2017-06-13T18:23:50.764Z,4.90
2017-06-13T18:26:17.424Z,4.15
2017-06-13T18:28:44.101Z,4.65
2017-06-13T18:31:10.760Z,6.40
2017-06-13T18:33:37.444Z,6.15
2017-06-13T18:36:04.112Z,6.07
2017-06-13T18:38:30.797Z,3.90
2017-06-13T18:40:57.455Z,4.10
2017-06-13T18:43:24.123Z,3.47
2017-06-13T18:45:50.798Z,5.95
2017-06-13T18:48:17.480Z,5.28
2017-06-13T18:50:44.147Z,7.47
2017-06-13T18:53:10.832Z,5.75
2017-06-13T18:55:37.531Z,9.25
2017-06-13T18:58:04.219Z,4.15
2017-06-13T19:00:30.884Z,5.50
2017-06-13T19:02:57.568Z,7.85
2017-06-13T19:05:24.227Z,5.18
2017-06-13T19:07:50.921Z,7.62
2017-06-13T19:10:17.592Z,4.70
2017-06-13T19:12:44.284Z,5.78
2017-06-13T19:15:10.959Z,5.20
2017-06-13T19:17:37.639Z,4.78
2017-06-13T19:20:04.301Z,6.62
2017-06-13T19:22:30.993Z,6.82
2017-06-13T19:24:57.648Z,8.00
2017-06-13T19:27:24.375Z,5.40
2017-06-13T19:29:51.049Z,7.57
2017-06-13T19:32:17.757Z,6.05
2017-06-13T19:34:44.431Z,6.45
2017-06-13T19:37:11.153Z,5.93
2017-06-13T19:39:37.812Z,5.00
2017-06-13T19:42:04.504Z,5.62
2017-06-13T19:44:31.176Z,7.10
2017-06-13T19:46:57.874Z,8.98
2017-06-13T19:49:24.583Z,4.85
2017-06-13T19:51:51.282Z,5.90
2017-06-13T19:54:18.394Z,8.27
2017-06-13T19:56:45.212Z,5.15
2017-06-13T19:59:11.885Z,5.25
2017-06-13T20:01:38.547Z,4.97
2017-06-13T20:04:05.221Z,5.32
2017-06-13T20:06:31.892Z,5.87
2017-06-13T20:08:58.559Z,5.82
2017-06-13T20:11:25.235Z,6.05
2017-06-13T20:13:51.931Z,7.55
2017-06-13T20:16:18.599Z,7.70
2017-06-13T20:18:45.288Z,8.38
2017-06-13T20:21:11.954Z,5.82
2017-06-13T20:23:38.648Z,6.28
2017-06-13T20:26:05.319Z,7.82
2017-06-13T20:28:32.016Z,8.00
2017-06-13T20:30:58.683Z,9.57
2017-06-13T20:33:25.386Z,6.45
2017-06-13T20:35:52.070Z,4.90
2017-06-13T20:38:18.760Z,5.45
2017-06-13T20:40:45.424Z,5.75
2017-06-13T20:43:12.131Z,7.37
2017-06-13T20:45:38.800Z,9.02
2017-06-13T20:48:05.496Z,6.28
2017-06-13T20:50:32.160Z,5.28
2017-06-13T20:52:58.856Z,6.00
2017-06-13T20:55:25.523Z,6.10
2017-06-13T20:57:52.216Z,5.85
2017-06-13T21:00:18.893Z,5.93
2017-06-13T21:02:46.007Z,7.05
2017-06-13T21:05:12.668Z,5.50
2017-06-13T21:07:39.377Z,7.15
2017-06-13T21:10:06.044Z,6.75
2017-06-13T21:12:32.736Z,5.82
2017-06-13T21:14:59.398Z,5.35
2017-06-13T21:17:26.067Z,5.57
2017-06-13T21:19:52.741Z,4.97
2017-06-13T21:22:19.408Z,5.40
2017-06-13T21:24:46.081Z,5.57
2017-06-13T21:27:12.747Z,4.75
2017-06-13T21:29:39.408Z,7.37
2017-06-13T21:32:06.067Z,9.25
2017-06-13T21:34:32.773Z,6.68
2017-06-13T21:36:59.524Z,6.03
2017-06-13T21:39:26.189Z,7.28
2017-06-13T21:41:52.852Z,6.37
2017-06-13T21:44:19.519Z,6.03
2017-06-13T21:46:46.193Z,4.90
2017-06-13T21:49:12.859Z,7.28
2017-06-13T21:51:39.531Z,7.25
2017-06-13T21:54:06.228Z,7.45
2017-06-13T21:56:32.895Z,6.68
2017-06-13T21:58:59.584Z,6.40
2017-06-13T22:01:26.247Z,8.43
2017-06-13T22:03:52.931Z,6.80
2017-06-13T22:06:19.603Z,5.68
2017-06-13T22:08:46.288Z,5.70
2017-06-13T22:11:12.951Z,6.87
2017-06-13T22:13:39.639Z,5.62
2017-06-13T22:16:06.628Z,12.05
2017-06-13T22:18:33.319Z,7.00
2017-06-13T22:20:59.989Z,5.43
2017-06-13T22:23:26.675Z,6.12
2017-06-13T22:25:53.340Z,6.00
2017-06-13T22:28:20.041Z,6.80
2017-06-13T22:30:46.708Z,9.40
2017-06-13T22:33:13.376Z,6.75
2017-06-13T22:35:40.041Z,7.30
2017-06-13T22:38:06.712Z,6.50
2017-06-13T22:40:33.379Z,6.37
2017-06-13T22:43:00.043Z,6.70
2017-06-13T22:45:26.712Z,6.37
2017-06-13T22:47:53.382Z,7.37
2017-06-13T22:50:20.050Z,7.82
2017-06-13T22:52:46.711Z,6.70
2017-06-13T22:55:13.367Z,7.65
2017-06-13T22:57:40.043Z,7.55
2017-06-13T23:00:06.707Z,9.27
2017-06-13T23:02:33.376Z,8.20
2017-06-13T23:05:00.039Z,6.07
2017-06-13T23:07:26.695Z,6.55
2017-06-13T23:09:53.355Z,6.30
2017-06-13T23:12:20.027Z,6.65
2017-06-13T23:14:46.689Z,6.43
2017-06-13T23:17:13.363Z,7.62
2017-06-13T23:19:40.027Z,6.68
2017-06-13T23:22:06.684Z,7.55
2017-06-13T23:24:33.343Z,6.25
2017-06-13T23:27:00.008Z,6.47
2017-06-13T23:29:26.675Z,6.82
2017-06-13T23:31:53.340Z,6.15
2017-06-13T23:34:20.303Z,5.82
2017-06-13T23:36:46.959Z,7.68
2017-06-13T23:39:13.653Z,6.32
2017-06-13T23:41:40.321Z,7.75
2017-06-13T23:44:07.007Z,7.68
2017-06-13T23:46:33.685Z,5.70
2017-06-13T23:49:00.343Z,6.32
2017-06-13T23:51:27.013Z,5.62
2017-06-13T23:53:53.923Z,5.95
2017-06-13T23:56:20.583Z,7.25
2017-06-13T23:58:47.252Z,5.70
